Time;durP1;ratioP1;P1;durP2;ratioP2;P2;SDS_P1;SDS_P2;PMS_P1;PMS_P2;Temp;Humidity;BMP_temperature;BMP_pressure;BME280_temperature;BME280_humidity;BME280_pressure;Samples;Min_cycle;Max_cycle;Signal;HPM_P1;HPM_P2
2021/09/22 00:02:07;;;;;;;7.57;5.03;;;;;;;22.29;50.43;102946.44;5000056;28;20046;-71
2021/09/22 00:04:34;;;;;;;7.78;5.75;;;;;;;22.26;50.73;102949.41;5000622;28;20750;-71
2021/09/22 00:07:01;;;;;;;6.47;5.03;;;;;;;22.20;50.60;102943.81;4998257;28;20453;-72
2021/09/22 00:09:26;;;;;;;7.88;5.47;;;;;;;22.27;50.75;102950.22;5000334;28;20337;-72
2021/09/22 00:11:52;;;;;;;7.90;5.00;;;;;;;22.27;50.68;102956.38;5002013;28;20049;-72
2021/09/22 00:14:17;;;;;;;6.65;4.90;;;;;;;22.29;50.43;102956.22;5003084;28;20104;-72
2021/09/22 00:16:43;;;;;;;5.82;5.05;;;;;;;22.19;50.66;102942.97;5003111;28;20034;-73
2021/09/22 00:19:09;;;;;;;6.68;5.05;;;;;;;22.25;50.43;102952.16;5004759;28;20034;-72
2021/09/22 00:21:34;;;;;;;7.53;5.25;;;;;;;22.18;50.56;102946.59;5007213;28;20029;-72
2021/09/22 00:24:00;;;;;;;6.45;4.93;;;;;;;22.13;51.03;102948.88;5003787;28;20041;-72
2021/09/22 00:26:26;;;;;;;9.20;5.78;;;;;;;22.15;50.64;102938.94;5004473;28;20034;-72
2021/09/22 00:28:51;;;;;;;7.30;5.72;;;;;;;22.20;50.67;102934.03;5005189;28;20055;-72
2021/09/22 00:31:17;;;;;;;6.75;4.82;;;;;;;22.26;50.83;102949.41;5002973;28;20034;-72
2021/09/22 00:33:43;;;;;;;6.35;5.10;;;;;;;22.17;50.61;102950.25;5002759;28;20080;-72
2021/09/22 00:36:09;;;;;;;8.70;5.32;;;;;;;22.17;50.80;102955.56;5003729;28;20066;-72
2021/09/22 00:38:35;;;;;;;7.50;4.88;;;;;;;22.07;50.64;102928.19;5004349;28;20041;-72
2021/09/22 00:41:01;;;;;;;7.05;4.85;;;;;;;22.16;50.74;102940.63;5004644;28;20046;-73
2021/09/22 00:43:26;;;;;;;7.93;5.80;;;;;;;22.21;50.50;102943.66;5005905;28;20102;-72
2021/09/22 00:45:52;;;;;;;7.18;5.63;;;;;;;22.17;50.83;102947.59;5001832;28;20053;-73
2021/09/22 00:48:18;;;;;;;7.50;5.13;;;;;;;22.07;50.73;102937.97;5003826;28;20772;-72
2021/09/22 00:50:50;;;;;;;7.47;5.18;;;;;;;22.14;50.54;102937.28;5000849;28;20040;-72
2021/09/22 00:53:16;;;;;;;7.20;5.28;;;;;;;22.18;50.57;102938.66;5002422;28;20411;-73
2021/09/22 00:55:44;;;;;;;7.60;5.10;;;;;;;22.06;50.71;102928.34;5004172;28;20033;-72
2021/09/22 00:58:10;;;;;;;7.57;5.57;;;;;;;22.22;50.71;102936.53;5001960;28;20041;-72
2021/09/22 01:00:38;;;;;;;7.45;5.20;;;;;;;22.18;50.50;102936.00;5003693;28;20042;-72
2021/09/22 01:03:06;;;;;;;6.47;5.03;;;;;;;22.15;50.51;102928.31;5002864;28;20521;-72
2021/09/22 01:05:32;;;;;;;7.78;4.80;;;;;;;22.14;50.92;102939.09;5004508;28;20041;-72
2021/09/22 01:07:59;;;;;;;5.55;4.68;;;;;;;22.15;50.71;102936.28;5013989;28;20029;-72
2021/09/22 01:10:25;;;;;;;7.03;4.78;;;;;;;22.10;50.65;102935.06;5007287;28;20136;-72
2021/09/22 01:12:51;;;;;;;6.55;4.80;;;;;;;22.10;50.58;102938.53;4998839;28;20042;-73
2021/09/22 01:15:38;;;;;;;6.95;5.25;;;;;;;22.13;50.92;102940.06;5002428;28;20036;-72
2021/09/22 01:18:12;;;;;;;6.88;4.35;;;;;;;22.09;50.79;102933.38;5000755;28;20033;-73
2021/09/22 01:20:39;;;;;;;7.13;5.00;;;;;;;22.11;50.94;102945.53;5003774;28;21555;-72
2021/09/22 01:23:08;;;;;;;8.48;5.10;;;;;;;22.10;50.79;102949.16;5000314;28;20030;-73
2021/09/22 01:25:39;;;;;;;6.97;5.28;;;;;;;22.04;50.71;102936.41;5004575;28;20033;-73
2021/09/22 01:28:08;;;;;;;6.65;5.13;;;;;;;22.09;50.80;102939.53;5002610;28;20038;-73
2021/09/22 01:30:36;;;;;;;6.97;5.15;;;;;;;22.07;51.07;102944.13;4986805;28;20069;-73
2021/09/22 01:33:07;;;;;;;6.82;4.82;;;;;;;22.10;50.89;102933.25;4999888;28;20505;-73
2021/09/22 01:35:46;;;;;;;6.03;4.72;;;;;;;22.09;50.74;102925.44;5027082;28;20482;-73
2021/09/22 01:38:27;;;;;;;8.88;5.65;;;;;;;22.09;50.72;102928.06;5023759;28;20026;-72
2021/09/22 01:41:08;;;;;;;8.07;5.43;;;;;;;22.09;50.66;102922.78;5001366;28;20065;-72
2021/09/22 01:43:37;;;;;;;6.18;4.90;;;;;;;22.04;50.89;102933.75;5001104;28;20130;-73
2021/09/22 01:46:04;;;;;;;6.03;5.18;;;;;;;22.03;51.05;102918.81;5026519;28;20037;-73
2021/09/22 01:48:32;;;;;;;6.85;5.22;;;;;;;22.00;50.78;102916.47;4999135;28;20133;-72
2021/09/22 01:51:00;;;;;;;6.88;5.00;;;;;;;22.02;50.75;102920.66;5003369;28;20121;-72
2021/09/22 01:53:27;;;;;;;5.68;4.80;;;;;;;22.08;50.84;102926.38;4999950;28;20116;-73
2021/09/22 01:55:55;;;;;;;7.28;4.93;;;;;;;21.96;50.95;102923.88;5002002;28;20120;-73
2021/09/22 01:58:22;;;;;;;6.40;4.95;;;;;;;22.01;50.80;102926.94;5001646;28;20038;-73
2021/09/22 02:00:58;;;;;;;5.95;5.07;;;;;;;22.06;50.85;102931.81;4987531;28;20040;-73
2021/09/22 02:03:50;;;;;;;6.05;4.82;;;;;;;22.01;51.24;102923.44;5002077;28;20046;-73
2021/09/22 02:06:25;;;;;;;6.78;4.80;;;;;;;22.00;51.01;102933.22;5000106;28;20038;-73
2021/09/22 02:08:51;;;;;;;6.15;4.80;;;;;;;21.99;50.81;102933.38;5000337;28;20049;-73
2021/09/22 02:11:30;;;;;;;6.67;5.10;;;;;;;22.00;51.09;102932.38;4986876;28;20095;-73
2021/09/22 02:13:55;;;;;;;6.57;4.82;;;;;;;21.95;50.88;102914.25;5003318;28;20071;-73
2021/09/22 02:16:27;;;;;;;6.93;5.00;;;;;;;21.95;50.80;102916.91;4998506;28;20042;-73
2021/09/22 02:19:10;;;;;;;6.82;4.93;;;;;;;21.98;51.01;102919.25;5001708;28;20118;-73
2021/09/22 02:21:42;;;;;;;6.72;4.95;;;;;;;21.85;51.09;102909.94;5001464;28;20033;-73
2021/09/22 02:24:11;;;;;;;5.43;4.40;;;;;;;21.83;51.33;102904.78;4997897;28;20062;-73
2021/09/22 02:26:37;;;;;;;5.88;4.80;;;;;;;21.98;51.17;102915.78;5003202;28;20069;-73
2021/09/22 02:29:03;;;;;;;6.75;5.20;;;;;;;22.00;51.07;102913.81;5001742;28;20069;-73
2021/09/22 02:31:31;;;;;;;6.70;4.93;;;;;;;21.99;51.11;102912.97;5001051;28;20126;-73
2021/09/22 02:34:00;;;;;;;7.10;5.32;;;;;;;21.98;50.81;102911.31;4999080;28;20037;-73
2021/09/22 02:36:26;;;;;;;6.32;4.90;;;;;;;21.92;50.90;102911.88;4996707;28;20083;-73
2021/09/22 02:38:56;;;;;;;7.47;5.03;;;;;;;21.89;51.12;102920.09;5000265;28;20079;-73
2021/09/22 02:41:23;;;;;;;6.53;4.47;;;;;;;21.93;50.99;102916.22;5002934;28;20046;-73
2021/09/22 02:43:51;;;;;;;5.43;4.43;;;;;;;21.89;51.27;102913.97;4998321;28;20135;-72
2021/09/22 02:46:20;;;;;;;7.77;4.83;;;;;;;21.90;50.89;102913.84;5002593;28;20034;-73
2021/09/22 02:49:01;;;;;;;7.05;4.85;;;;;;;21.88;50.76;102915.78;4988271;28;20501;-73
2021/09/22 02:51:27;;;;;;;6.25;4.90;;;;;;;21.93;50.78;102918.88;4983783;28;20371;-73
2021/09/22 02:53:53;;;;;;;6.40;4.78;;;;;;;21.76;51.29;102905.50;5000473;28;20086;-72
2021/09/22 02:56:19;;;;;;;5.43;4.13;;;;;;;21.86;51.00;102912.44;4998811;28;20148;-72
2021/09/22 02:58:45;;;;;;;7.28;4.63;;;;;;;21.87;51.11;102911.47;5001106;28;20049;-72
2021/09/22 03:01:11;;;;;;;6.85;4.60;;;;;;;21.85;51.12;102908.13;5001165;28;20106;-72
2021/09/22 03:03:39;;;;;;;6.78;4.60;;;;;;;21.83;51.33;102909.25;5001405;28;20048;-73
2021/09/22 03:06:04;;;;;;;6.68;4.97;;;;;;;21.82;51.37;102905.75;5001116;28;20038;-73
2021/09/22 03:08:30;;;;;;;6.78;4.50;;;;;;;21.92;51.08;102903.94;5001000;28;20062;-73
2021/09/22 03:10:57;;;;;;;6.93;4.80;;;;;;;21.92;51.23;102911.06;5000190;28;20036;-73
2021/09/22 03:13:24;;;;;;;5.00;4.20;;;;;;;21.90;50.85;102895.28;5000813;28;20384;-73
2021/09/22 03:15:50;;;;;;;7.50;5.32;;;;;;;21.90;51.17;102905.91;4983016;28;20030;-74
2021/09/22 03:18:16;;;;;;;5.82;4.40;;;;;;;21.87;51.08;102900.84;5002367;28;20083;-73
2021/09/22 03:20:42;;;;;;;7.10;4.88;;;;;;;21.83;50.85;102883.56;4999724;28;20041;-73
2021/09/22 03:23:08;;;;;;;6.45;4.72;;;;;;;21.89;51.11;102895.41;5001117;28;20107;-73
2021/09/22 03:25:37;;;;;;;5.30;4.40;;;;;;;21.89;51.17;102893.59;5001296;28;20045;-73
2021/09/22 03:28:03;;;;;;;5.03;4.40;;;;;;;21.80;51.12;102897.13;4999917;28;20042;-73
2021/09/22 03:30:29;;;;;;;7.07;4.82;;;;;;;21.86;50.89;102896.53;5001102;28;20048;-72
2021/09/22 03:33:24;;;;;;;6.65;4.70;;;;;;;21.91;51.00;102901.44;4992588;28;20045;-72
2021/09/22 03:35:50;;;;;;;5.63;4.47;;;;;;;21.86;51.28;102893.88;4968079;28;20114;-73
2021/09/22 03:38:18;;;;;;;5.45;4.28;;;;;;;21.73;51.09;102885.41;4999995;28;20491;-72
2021/09/22 03:40:47;;;;;;;7.40;4.97;;;;;;;21.83;51.14;102893.34;5002143;28;20041;-72
2021/09/22 03:43:13;;;;;;;6.25;4.97;;;;;;;21.75;51.00;102883.44;5000641;28;20087;-74
2021/09/22 03:45:39;;;;;;;5.85;4.32;;;;;;;21.74;51.05;102886.25;4999744;28;20756;-74
2021/09/22 03:48:05;;;;;;;5.28;4.22;;;;;;;21.83;51.34;102898.63;4998210;28;20041;-73
2021/09/22 03:50:30;;;;;;;4.85;3.83;;;;;;;21.71;51.10;102872.28;5003076;28;20050;-74
2021/09/22 03:53:17;;;;;;;6.05;4.70;;;;;;;21.82;51.22;102892.50;4994159;28;20091;-74
2021/09/22 03:55:46;;;;;;;6.70;4.45;;;;;;;21.82;51.26;102895.16;5001370;28;20072;-74
2021/09/22 03:58:15;;;;;;;6.03;4.30;;;;;;;21.84;51.04;102889.69;5004008;28;20141;-74
2021/09/22 04:00:41;;;;;;;6.57;4.60;;;;;;;21.83;51.27;102891.50;5001347;28;20029;-74
2021/09/22 04:03:07;;;;;;;6.88;4.50;;;;;;;21.76;51.37;102893.06;5002110;28;20131;-74
2021/09/22 04:05:34;;;;;;;6.25;4.10;;;;;;;21.79;50.98;102873.38;5002869;28;20030;-74
2021/09/22 04:08:00;;;;;;;6.07;4.43;;;;;;;21.83;50.92;102880.06;5003584;28;20416;-74
2021/09/22 04:10:27;;;;;;;5.07;3.88;;;;;;;21.83;51.23;102883.56;5003102;28;20580;-74
2021/09/22 04:12:55;;;;;;;5.95;4.68;;;;;;;21.71;51.03;102868.78;5003503;28;20057;-74
2021/09/22 04:15:23;;;;;;;6.55;4.35;;;;;;;21.82;51.07;102889.00;5004952;28;20042;-74
2021/09/22 04:17:49;;;;;;;6.53;4.70;;;;;;;21.84;50.98;102895.00;5004430;28;20087;-74
2021/09/22 04:20:14;;;;;;;4.68;3.83;;;;;;;21.87;51.15;102892.06;5003164;28;20033;-74
2021/09/22 04:22:40;;;;;;;5.15;4.07;;;;;;;21.88;50.82;102896.38;5019598;28;20049;-73
2021/09/22 04:25:09;;;;;;;5.82;4.40;;;;;;;21.89;50.69;102888.28;5010862;28;20040;-74
2021/09/22 04:27:40;;;;;;;7.32;4.70;;;;;;;21.98;50.91;102892.72;5009288;28;20884;-74
2021/09/22 04:30:25;;;;;;;5.25;4.15;;;;;;;22.08;50.54;102894.53;5005492;28;20054;-74
2021/09/22 04:33:09;;;;;;;6.18;4.75;;;;;;;22.03;50.95;102889.63;5000815;28;20072;-74
2021/09/22 04:36:04;;;;;;;6.63;4.60;;;;;;;22.06;50.63;102893.84;4957209;28;20114;-74
2021/09/22 04:38:48;;;;;;;5.35;4.00;;;;;;;22.13;50.60;102882.53;5004168;28;20065;-74
2021/09/22 04:41:33;;;;;;;5.85;4.20;;;;;;;22.14;50.92;102893.97;5003009;28;20064;-74
2021/09/22 04:44:17;;;;;;;5.00;3.92;;;;;;;22.14;50.62;102876.25;4996007;28;20053;-74
2021/09/22 04:47:01;;;;;;;6.10;4.20;;;;;;;22.23;50.54;102893.09;4996596;28;20057;-74
2021/09/22 04:49:45;;;;;;;6.63;4.82;;;;;;;22.12;51.01;102875.56;5002745;28;20057;-74
2021/09/22 04:52:46;;;;;;;5.65;4.15;;;;;;;22.09;51.13;102889.13;4960531;28;20225;-74
2021/09/22 04:55:31;;;;;;;5.00;3.85;;;;;;;22.18;50.76;102887.41;5001472;28;20595;-72
2021/09/22 04:58:15;;;;;;;4.78;3.53;;;;;;;22.12;50.85;102888.81;5002436;28;20045;-73
2021/09/22 05:01:01;;;;;;;5.07;4.05;;;;;;;22.19;50.93;102897.84;5003736;28;20113;-73
2021/09/22 05:03:46;;;;;;;5.82;4.05;;;;;;;22.18;50.63;102888.22;5002892;28;20138;-73
2021/09/22 05:06:30;;;;;;;6.13;3.92;;;;;;;22.20;50.74;102888.06;5002621;28;20072;-73
2021/09/22 05:09:14;;;;;;;4.68;3.70;;;;;;;22.17;50.81;102885.72;5004026;28;20056;-73
2021/09/22 05:12:00;;;;;;;5.15;3.90;;;;;;;22.20;50.54;102888.91;5003182;28;20136;-73
2021/09/22 05:14:44;;;;;;;5.55;4.07;;;;;;;22.09;51.01;102875.84;5003631;28;20102;-73
2021/09/22 05:17:28;;;;;;;5.68;4.22;;;;;;;22.18;50.73;102890.03;5002271;28;20053;-73
2021/09/22 05:20:12;;;;;;;5.07;3.80;;;;;;;22.15;50.97;102883.22;5002445;28;20096;-73
2021/09/22 05:22:57;;;;;;;5.85;4.10;;;;;;;22.11;50.57;102870.41;5002002;28;20048;-73
2021/09/22 05:25:51;;;;;;;5.13;3.85;;;;;;;22.13;50.99;102887.84;5032529;28;20458;-73
2021/09/22 05:28:35;;;;;;;4.72;3.70;;;;;;;22.13;50.74;102884.34;5005130;28;20056;-73
2021/09/22 05:31:19;;;;;;;5.32;4.05;;;;;;;22.06;50.67;102877.94;4999418;28;20205;-73
2021/09/22 05:34:03;;;;;;;5.32;4.20;;;;;;;22.12;50.86;102894.13;5003863;28;20076;-73
2021/09/22 05:36:48;;;;;;;6.43;4.28;;;;;;;22.11;50.80;102895.09;5006129;28;20092;-73
2021/09/22 05:39:32;;;;;;;4.88;3.75;;;;;;;22.11;50.73;102887.16;5002272;28;20053;-73
2021/09/22 05:42:16;;;;;;;4.85;3.88;;;;;;;22.05;51.09;102889.53;5004663;28;20094;-73
2021/09/22 05:45:01;;;;;;;4.93;3.88;;;;;;;22.04;51.04;102883.34;5001784;28;20053;-73
2021/09/22 05:47:45;;;;;;;5.25;3.97;;;;;;;22.08;50.75;102898.03;5000051;28;20524;-73
2021/09/22 05:50:29;;;;;;;4.88;3.80;;;;;;;22.05;51.09;102892.19;4997893;28;20161;-73
2021/09/22 05:53:33;;;;;;;5.05;3.92;;;;;;;22.08;50.81;102899.84;5017352;28;20045;-73
2021/09/22 05:56:17;;;;;;;5.55;4.05;;;;;;;22.07;50.85;102895.53;5017723;28;20107;-73
2021/09/22 05:59:01;;;;;;;4.45;3.50;;;;;;;22.14;50.68;102896.63;5004791;28;20096;-73
2021/09/22 06:01:45;;;;;;;5.22;3.88;;;;;;;22.12;50.68;102906.56;4999579;28;20141;-72
2021/09/22 06:04:49;;;;;;;6.47;4.05;;;;;;;22.15;50.92;102904.44;4998968;28;20092;-72
2021/09/22 06:07:34;;;;;;;5.15;3.60;;;;;;;22.13;50.84;102906.41;4987172;28;20964;-73
2021/09/22 06:10:28;;;;;;;5.35;4.13;;;;;;;22.08;50.95;102884.75;4948513;28;20043;-72
2021/09/22 06:13:07;;;;;;;5.15;4.00;;;;;;;22.19;50.64;102908.47;5001831;28;20042;-74
2021/09/22 06:15:35;;;;;;;5.40;3.90;;;;;;;22.14;50.68;102907.25;4987114;28;20106;-73
2021/09/22 06:18:02;;;;;;;4.72;3.67;;;;;;;22.11;50.79;102896.94;5002788;28;20121;-72
2021/09/22 06:20:28;;;;;;;4.43;3.65;;;;;;;22.16;50.74;102899.97;5002199;28;20137;-74
2021/09/22 06:22:53;;;;;;;5.40;4.00;;;;;;;22.14;51.00;102896.63;5000716;28;20038;-73
2021/09/22 06:25:19;;;;;;;4.18;3.60;;;;;;;22.11;51.15;102899.59;5007915;28;20124;-73
2021/09/22 06:27:45;;;;;;;4.97;3.75;;;;;;;22.17;50.94;102907.78;4998401;28;20074;-73
2021/09/22 06:30:12;;;;;;;4.38;3.50;;;;;;;22.21;50.74;102903.84;5000573;28;20086;-73
2021/09/22 06:32:39;;;;;;;4.85;3.58;;;;;;;22.18;50.58;102905.97;5000426;28;20034;-73
2021/09/22 06:35:09;;;;;;;3.90;3.15;;;;;;;22.18;50.65;102900.66;5000516;28;20048;-73
2021/09/22 06:38:00;;;;;;;4.57;3.55;;;;;;;22.17;50.81;102907.78;5023707;28;20035;-73
2021/09/22 06:40:32;;;;;;;3.85;3.28;;;;;;;22.14;50.89;102909.91;5018117;28;20107;-73
2021/09/22 06:43:02;;;;;;;5.13;3.80;;;;;;;22.16;50.76;102915.91;4984701;28;20487;-73
2021/09/22 06:45:27;;;;;;;4.63;3.63;;;;;;;22.16;50.96;102918.53;4999465;28;20050;-72
2021/09/22 06:47:53;;;;;;;5.07;3.80;;;;;;;21.89;51.01;102880.31;5002381;28;20408;-73
2021/09/22 06:50:19;;;;;;;5.18;3.58;;;;;;;22.14;51.07;102913.38;5000268;28;20414;-73
2021/09/22 06:52:44;;;;;;;4.45;3.47;;;;;;;22.16;50.93;102918.53;5001462;28;20492;-73
2021/09/22 06:55:10;;;;;;;4.40;3.67;;;;;;;22.08;51.21;102905.97;5001706;28;20099;-73
2021/09/22 06:57:36;;;;;;;4.65;3.63;;;;;;;22.06;51.07;102904.47;5005509;28;20045;-73
2021/09/22 07:00:04;;;;;;;4.78;3.38;;;;;;;22.08;51.01;102898.03;5001148;28;20030;-73
2021/09/22 07:02:29;;;;;;;5.25;3.80;;;;;;;22.16;51.15;102905.28;4999957;28;20042;-73
2021/09/22 07:04:55;;;;;;;4.43;3.65;;;;;;;22.14;50.80;102899.28;5001273;28;20038;-73
2021/09/22 07:07:20;;;;;;;4.18;3.33;;;;;;;22.20;50.83;102912.81;4998947;28;20147;-73
2021/09/22 07:09:46;;;;;;;4.60;3.38;;;;;;;22.17;51.02;102910.44;4996303;28;20030;-73
2021/09/22 07:12:12;;;;;;;5.88;3.90;;;;;;;22.14;50.84;102905.44;5003457;28;20030;-73
2021/09/22 07:14:37;;;;;;;4.63;3.60;;;;;;;22.15;51.06;102909.75;5002187;28;20049;-73
2021/09/22 07:17:03;;;;;;;4.75;3.80;;;;;;;22.12;51.02;102906.56;5000331;28;20048;-73
2021/09/22 07:19:29;;;;;;;3.42;3.13;;;;;;;22.05;51.24;102898.31;5000972;28;20038;-73
2021/09/22 07:21:56;;;;;;;4.43;3.72;;;;;;;22.12;51.26;102907.41;4998509;28;20419;-72
2021/09/22 07:24:21;;;;;;;4.03;3.50;;;;;;;22.12;51.18;102910.03;5015903;28;20032;-72
2021/09/22 07:26:47;;;;;;;4.25;3.50;;;;;;;21.85;51.15;102855.06;5037596;28;20039;-73
2021/09/22 07:29:13;;;;;;;5.35;3.67;;;;;;;22.12;51.15;102907.41;5045719;28;20038;-73
2021/09/22 07:31:39;;;;;;;4.25;3.60;;;;;;;22.16;50.73;102905.28;5040630;28;20498;-74
2021/09/22 07:34:04;;;;;;;4.65;3.50;;;;;;;22.11;50.99;102915.50;5045466;28;20408;-74
2021/09/22 07:36:30;;;;;;;4.18;3.60;;;;;;;22.09;51.13;102905.03;5027983;28;20119;-74
2021/09/22 07:38:56;;;;;;;4.07;3.20;;;;;;;22.20;50.92;102904.84;5043748;28;20063;-74
2021/09/22 07:41:23;;;;;;;5.28;3.40;;;;;;;22.12;50.99;102906.56;4999545;28;20092;-74
2021/09/22 07:43:48;;;;;;;4.28;3.40;;;;;;;22.13;50.65;102905.56;4991582;28;20088;-74
2021/09/22 07:46:14;;;;;;;4.57;3.72;;;;;;;22.12;51.10;102901.25;4991151;28;20041;-74
2021/09/22 07:48:39;;;;;;;4.05;3.20;;;;;;;22.11;50.87;102888.97;5026445;28;20037;-74
2021/09/22 07:51:05;;;;;;;4.38;3.65;;;;;;;22.10;50.82;102892.59;5042598;28;20043;-74
2021/09/22 07:53:31;;;;;;;4.47;3.47;;;;;;;22.12;50.75;102904.75;5003032;28;20027;-74
2021/09/22 07:55:56;;;;;;;4.75;3.45;;;;;;;22.13;50.85;102910.88;4998933;28;20045;-74
2021/09/22 07:58:22;;;;;;;4.50;3.55;;;;;;;22.09;50.93;102896.25;5001379;28;20403;-74
2021/09/22 08:00:48;;;;;;;4.35;3.33;;;;;;;22.03;50.96;102887.81;4998778;28;20033;-74
2021/09/22 08:03:15;;;;;;;4.88;3.60;;;;;;;22.18;50.64;102905.97;4998862;28;20444;-74
2021/09/22 08:05:40;;;;;;;4.63;3.35;;;;;;;22.06;51.03;102885.88;4999127;28;20030;-73
2021/09/22 08:08:07;;;;;;;6.32;3.70;;;;;;;22.07;50.94;102895.53;5003727;28;20772;-73
2021/09/22 08:10:35;;;;;;;4.50;3.60;;;;;;;21.99;50.95;102882.97;4998361;28;20794;-72
2021/09/22 08:13:01;;;;;;;5.28;3.50;;;;;;;22.19;50.90;102907.63;5001092;28;20038;-73
2021/09/22 08:15:26;;;;;;;7.47;4.78;;;;;;;22.09;51.11;102899.72;4994528;28;20034;-74
2021/09/22 08:17:52;;;;;;;8.45;4.70;;;;;;;21.69;50.85;102839.75;5001701;28;20125;-72
2021/09/22 08:20:17;;;;;;;8.88;4.47;;;;;;;22.22;50.49;102891.41;4974901;28;21789;-71
2021/09/22 08:22:45;;;;;;;5.68;3.80;;;;;;;22.51;50.19;102896.59;5001543;28;20040;-71
2021/09/22 08:25:11;;;;;;;5.65;3.50;;;;;;;22.60;50.25;102874.47;5000770;28;20030;-71
2021/09/22 08:27:37;;;;;;;5.20;4.03;;;;;;;22.68;49.84;102881.69;4981093;28;20042;-70
2021/09/22 08:30:04;;;;;;;4.95;3.67;;;;;;;22.86;49.72;102887.91;5002696;28;20404;-74
2021/09/22 08:32:30;;;;;;;5.55;4.10;;;;;;;22.84;49.90;102881.91;5003681;28;20026;-72
2021/09/22 08:34:56;;;;;;;5.38;4.10;;;;;;;22.97;49.56;102890.31;5000377;28;20030;-73
2021/09/22 08:37:21;;;;;;;6.18;4.45;;;;;;;23.04;49.27;102883.44;4985705;28;20034;-74
2021/09/22 08:39:47;;;;;;;8.07;4.80;;;;;;;23.00;49.34;102882.06;5009364;28;20038;-73
2021/09/22 08:42:13;;;;;;;6.70;4.75;;;;;;;22.91;49.61;102880.31;4980985;28;20894;-72
2021/09/22 08:44:38;;;;;;;8.68;4.35;;;;;;;;;;5001425;28;20105;-72
2021/09/22 08:47:04;;;;;;;6.15;4.32;;;;;;;22.84;50.00;102876.59;4976585;28;20733;-73
2021/09/22 08:49:29;;;;;;;6.63;4.35;;;;;;;22.79;49.96;102865.53;4997163;28;20095;-73
2021/09/22 08:51:55;;;;;;;6.38;4.25;;;;;;;22.76;49.83;102865.84;4980135;28;20399;-72
2021/09/22 08:54:21;;;;;;;5.65;4.00;;;;;;;22.80;49.72;102873.38;5005750;28;20057;-72
2021/09/22 08:56:47;;;;;;;6.05;4.72;;;;;;;22.81;49.96;102877.72;4969031;28;20117;-73
2021/09/22 08:59:14;;;;;;;6.40;4.68;;;;;;;22.84;50.10;102884.56;4984646;28;20232;-73
2021/09/22 09:01:41;;;;;;;9.90;4.57;;;;;;;22.85;49.99;102883.59;4977917;28;20041;-73
2021/09/22 09:04:20;;;;;;;7.32;4.65;;;;;;;22.89;49.78;102888.44;4995577;28;20816;-72
2021/09/22 09:06:46;;;;;;;7.15;5.00;;;;;;;22.90;49.61;102890.09;4978377;28;20449;-72
2021/09/22 09:09:13;;;;;;;7.82;4.75;;;;;;;22.87;49.62;102887.75;4994515;28;20114;-72
2021/09/22 09:11:43;;;;;;;9.88;4.65;;;;;;;22.89;49.75;102887.59;5005283;28;20448;-72
2021/09/22 09:14:13;;;;;;;7.20;5.15;;;;;;;22.91;49.83;102886.47;4975856;28;20701;-73
2021/09/22 09:16:42;;;;;;;6.38;4.85;;;;;;;22.88;49.78;102886.78;5001471;28;20026;-75
2021/09/22 09:19:15;;;;;;;7.40;4.57;;;;;;;22.95;49.86;102888.81;4977184;28;20033;-73
2021/09/22 09:21:55;;;;;;;7.10;5.13;;;;;;;22.97;49.57;102889.50;5004354;28;20042;-73
2021/09/22 09:24:45;;;;;;;9.07;5.38;;;;;;;22.99;49.49;102885.72;4972991;28;20041;-73
2021/09/22 09:27:20;;;;;;;8.63;4.93;;;;;;;22.99;49.45;102896.34;5001060;28;20087;-72
2021/09/22 09:29:53;;;;;;;7.45;5.22;;;;;;;22.97;49.74;102902.78;4975986;28;20068;-73
2021/09/22 09:32:30;;;;;;;9.63;5.38;;;;;;;22.98;49.42;102886.72;5001121;28;20042;-73
2021/09/22 09:35:09;;;;;;;12.23;5.22;;;;;;;23.04;49.43;102893.22;4976106;28;20038;-74
2021/09/22 09:38:01;;;;;;;9.70;5.53;;;;;;;23.02;49.27;102888.06;5038576;28;20038;-73
2021/09/22 09:40:31;;;;;;;8.93;5.55;;;;;;;23.03;49.19;102886.25;4977158;28;20050;-73
2021/09/22 09:43:09;;;;;;;8.75;5.35;;;;;;;22.98;49.33;102877.88;5000652;28;20174;-73
2021/09/22 09:45:45;;;;;;;10.70;6.25;;;;;;;23.02;49.28;102879.28;4979432;28;20042;-73
2021/09/22 09:48:22;;;;;;;9.80;6.18;;;;;;;23.01;49.28;102874.94;5003465;28;20509;-73
2021/09/22 09:50:52;;;;;;;10.32;6.60;;;;;;;23.05;49.33;102873.66;5008678;28;20065;-73
2021/09/22 09:53:36;;;;;;;12.35;6.38;;;;;;;23.12;49.18;102872.88;4986048;28;20034;-73
2021/09/22 09:56:06;;;;;;;18.10;7.10;;;;;;;23.19;49.03;102873.13;4991321;28;20038;-73
2021/09/22 09:58:44;;;;;;;12.43;6.88;;;;;;;23.20;49.03;102869.47;5052666;28;20079;-73
2021/09/22 10:01:11;;;;;;;11.32;7.22;;;;;;;23.19;48.98;102876.59;4984089;28;20034;-73
2021/09/22 10:03:36;;;;;;;13.43;7.18;;;;;;;23.14;49.10;102864.75;5000284;28;20042;-73
2021/09/22 10:06:02;;;;;;;9.80;6.43;;;;;;;23.20;48.96;102869.47;4980722;28;20038;-73
2021/09/22 10:08:28;;;;;;;10.65;6.88;;;;;;;23.09;49.05;102846.59;5001342;28;20148;-73
2021/09/22 10:10:56;;;;;;;10.07;7.20;;;;;;;22.89;48.84;102816.72;4974287;28;20037;-72
2021/09/22 10:13:23;;;;;;;8.70;6.25;;;;;;;23.18;49.20;102858.16;5001432;28;20117;-73
2021/09/22 10:15:50;;;;;;;13.30;7.10;;;;;;;23.17;49.31;102865.31;5001003;28;20119;-73
2021/09/22 10:18:19;;;;;;;12.10;6.90;;;;;;;23.16;48.95;102844.16;4979006;28;20462;-73
2021/09/22 10:20:48;;;;;;;12.27;7.20;;;;;;;23.25;49.09;102858.38;5000811;28;21710;-73
2021/09/22 10:23:16;;;;;;;9.52;6.25;;;;;;;23.14;49.07;102835.50;4978296;28;20099;-73
2021/09/22 10:25:46;;;;;;;10.55;6.80;;;;;;;23.20;49.18;102842.88;4996592;28;20373;-72
2021/09/22 10:28:13;;;;;;;11.38;6.95;;;;;;;23.25;49.05;102842.41;4964974;28;20433;-73
2021/09/22 10:30:44;;;;;;;10.75;6.53;;;;;;;23.23;49.03;102831.13;4997444;28;20475;-73
2021/09/22 10:33:34;;;;;;;9.27;6.05;;;;;;;23.24;49.14;102840.75;4974123;28;20090;-73
2021/09/22 10:36:02;;;;;;;11.52;7.10;;;;;;;23.25;49.05;102845.06;5001485;28;20128;-73
2021/09/22 10:38:28;;;;;;;11.32;5.93;;;;;;;23.25;49.04;102834.44;4980045;28;20448;-73
2021/09/22 10:40:56;;;;;;;11.80;6.45;;;;;;;23.25;49.02;102837.09;5001827;28;20121;-72
2021/09/22 10:43:27;;;;;;;10.95;6.75;;;;;;;23.26;49.17;102836.94;4965080;28;20158;-73
2021/09/22 10:45:56;;;;;;;10.70;6.50;;;;;;;23.25;48.98;102824.66;5027504;28;20045;-73
2021/09/22 10:48:23;;;;;;;10.95;6.47;;;;;;;23.24;49.31;102817.66;4983195;28;20042;-72
2021/09/22 10:50:56;;;;;;;9.80;6.32;;;;;;;23.27;49.11;102811.19;5001686;28;20038;-72
2021/09/22 10:53:30;;;;;;;10.75;6.68;;;;;;;23.25;49.13;102819.34;4978039;28;20042;-72
2021/09/22 10:56:05;;;;;;;9.82;5.95;;;;;;;23.28;48.91;102813.69;5000008;28;20087;-72
2021/09/22 10:58:33;;;;;;;10.98;6.65;;;;;;;23.28;49.00;102831.47;4974544;28;20384;-72
2021/09/22 11:00:59;;;;;;;10.07;6.30;;;;;;;23.26;49.30;102822.81;5001600;28;20033;-72
2021/09/22 11:03:50;;;;;;;9.60;6.45;;;;;;;23.28;48.88;102823.50;4976512;28;20038;-72
2021/09/22 11:09:12;;;;;;;8.10;6.07;;;;;;;23.26;49.10;102806.88;4985834;28;20046;-72
2021/09/22 11:11:56;;;;;;;8.45;5.95;;;;;;;23.29;49.12;102810.06;4999621;28;20095;-72
2021/09/22 11:14:45;;;;;;;11.55;6.40;;;;;;;23.27;49.30;102806.72;4966641;28;20065;-72
2021/09/22 11:17:15;;;;;;;8.20;5.90;;;;;;;23.29;49.17;102812.72;4996923;28;20061;-72
2021/09/22 11:19:42;;;;;;;;;;;;;;;23.26;49.38;102812.19;4980886;28;20037;-71
2021/09/22 11:22:30;;;;;;;8.77;6.07;;;;;;;23.31;49.40;102817.88;4999109;28;19914;-72
2021/09/22 11:25:19;;;;;;;8.93;5.78;;;;;;;23.28;49.24;102803.06;4976816;28;20042;-72
2021/09/22 11:27:45;;;;;;;8.68;5.70;;;;;;;23.29;49.10;102809.22;4995126;28;20045;-72
2021/09/22 11:30:11;;;;;;;9.48;5.80;;;;;;;23.25;49.23;102792.75;4979470;28;20046;-72
2021/09/22 11:32:41;;;;;;;13.02;5.82;;;;;;;23.30;49.28;102792.28;5003165;28;20077;-72
2021/09/22 11:35:16;;;;;;;9.48;5.97;;;;;;;23.29;49.19;102794.09;4970744;28;20045;-71
2021/09/22 11:37:53;;;;;;;7.55;5.50;;;;;;;23.29;49.14;102779.97;5022680;28;20038;-72
2021/09/22 11:40:23;;;;;;;7.70;5.35;;;;;;;23.36;49.29;102791.69;4982221;28;20507;-72
2021/09/22 11:43:00;;;;;;;10.45;5.85;;;;;;;23.34;49.01;102790.97;5001383;28;20042;-72
2021/09/22 11:45:35;;;;;;;10.27;5.78;;;;;;;23.31;49.34;102793.94;4978035;28;20034;-72
2021/09/22 11:48:01;;;;;;;9.10;5.25;;;;;;;23.29;49.43;102777.31;5000438;28;20041;-72